createdAt,value
2023-06-07T00:02:26.418Z,101404.72
2023-06-07T00:04:58.670Z,101407.88
2023-06-07T00:07:26.822Z,101412.66
2023-06-07T00:09:54.458Z,101405.78
2023-06-07T00:12:21.990Z,101402.41
2023-06-07T00:14:49.422Z,101397.31
2023-06-07T00:17:17.169Z,101395.38
2023-06-07T00:19:44.635Z,101397.66
2023-06-07T00:22:14.126Z,101400.28
2023-06-07T00:24:41.894Z,101397.44
2023-06-07T00:27:09.390Z,101392.91
2023-06-07T00:29:37.078Z,101398.66
2023-06-07T00:32:05.038Z,101395.28
2023-06-07T00:34:32.511Z,101400.47
2023-06-07T00:36:59.997Z,101396.19
2023-06-07T00:39:29.466Z,101398.53
2023-06-07T00:41:57.352Z,101407.56
2023-06-07T00:44:24.949Z,101401.41
2023-06-07T00:46:53.530Z,101397.28
2023-06-07T00:49:21.248Z,101394.88
2023-06-07T00:51:48.877Z,101402.97
2023-06-07T00:54:18.490Z,101401.06
2023-06-07T00:56:50.907Z,101395.81
2023-06-07T00:59:19.653Z,101406.34
2023-06-07T01:01:49.826Z,101411.31
2023-06-07T01:04:20.534Z,101409.22
2023-06-07T01:06:48.208Z,101409.22
2023-06-07T01:09:17.318Z,101413.31
2023-06-07T01:11:48.619Z,101409.38
2023-06-07T01:14:18.526Z,101405.72
2023-06-07T01:16:49.737Z,101409.31
2023-06-07T01:19:22.336Z,101404.59
2023-06-07T01:21:51.512Z,101401.22
2023-06-07T01:24:21.775Z,101404.78
2023-06-07T01:26:53.915Z,101394.03
2023-06-07T01:29:22.420Z,101397.59
2023-06-07T01:31:51.698Z,101395.34
2023-06-07T01:34:20.517Z,101396.19
2023-06-07T01:36:49.748Z,101396.75
2023-06-07T01:39:22.247Z,101388.28
2023-06-07T01:41:52.494Z,101392.91
2023-06-07T01:44:21.371Z,101387.28
2023-06-07T01:46:49.285Z,101382.25
2023-06-07T01:49:20.377Z,101383.31
2023-06-07T01:51:47.810Z,101383.16
2023-06-07T01:54:17.228Z,101386.97
2023-06-07T01:56:54.345Z,101380.19
2023-06-07T01:59:32.285Z,101381.22
2023-06-07T02:02:06.364Z,101377.00
2023-06-07T02:04:38.389Z,101384.22
2023-06-07T02:07:10.652Z,101383.44
2023-06-07T02:09:40.984Z,101383.41
2023-06-07T02:12:12.336Z,101382.03
2023-06-07T02:14:39.954Z,101381.38
2023-06-07T02:17:08.618Z,101379.69
2023-06-07T02:19:36.814Z,101377.25
2023-06-07T02:22:04.525Z,101380.34
2023-06-07T02:24:32.093Z,101381.41
2023-06-07T02:26:59.552Z,101386.91
2023-06-07T02:29:28.296Z,101375.09
2023-06-07T02:31:59.036Z,101375.88
2023-06-07T02:34:27.790Z,101363.09
2023-06-07T02:36:56.450Z,101364.88
2023-06-07T02:39:23.879Z,101369.00
2023-06-07T02:41:51.507Z,101372.56
2023-06-07T02:44:18.954Z,101371.47
2023-06-07T02:46:47.724Z,101376.44
2023-06-07T02:49:15.263Z,101376.47
2023-06-07T02:51:43.308Z,101369.81
2023-06-07T02:54:10.864Z,101371.22
2023-06-07T02:56:38.353Z,101372.84
2023-06-07T02:59:06.132Z,101371.63
2023-06-07T03:01:34.477Z,101376.78
2023-06-07T03:04:03.379Z,101374.56
2023-06-07T03:06:31.044Z,101367.91
2023-06-07T03:08:58.609Z,101372.06
2023-06-07T03:11:26.437Z,101376.19
2023-06-07T03:13:53.905Z,101377.16
2023-06-07T03:16:23.586Z,101383.19
2023-06-07T03:18:51.251Z,101380.13
2023-06-07T03:21:20.261Z,101385.50
2023-06-07T03:23:47.778Z,101381.53
2023-06-07T03:26:15.335Z,101378.34
2023-06-07T03:28:42.811Z,101382.09
2023-06-07T03:31:10.291Z,101383.28
2023-06-07T03:33:37.896Z,101381.56
2023-06-07T03:36:08.779Z,101390.31
2023-06-07T03:38:37.517Z,101385.63
2023-06-07T03:41:04.976Z,101385.41
2023-06-07T03:43:32.455Z,101396.25
2023-06-07T03:45:59.942Z,101392.44
2023-06-07T03:48:27.597Z,101392.09
2023-06-07T03:50:55.099Z,101391.78
2023-06-07T03:53:22.634Z,101393.06
2023-06-07T03:55:51.601Z,101405.16
2023-06-07T03:58:19.744Z,101390.38
2023-06-07T04:00:49.398Z,101388.66
2023-06-07T04:03:16.932Z,101390.81
2023-06-07T04:05:44.542Z,101385.84
2023-06-07T04:08:12.533Z,101387.97
2023-06-07T04:10:42.095Z,101393.28
2023-06-07T04:13:11.142Z,101393.53
2023-06-07T04:15:38.696Z,101395.69
2023-06-07T04:18:06.401Z,101391.31
2023-06-07T04:20:33.964Z,101391.69
2023-06-07T04:23:01.528Z,101397.72
2023-06-07T04:25:33.607Z,101396.69
2023-06-07T04:28:01.708Z,101398.22
2023-06-07T04:30:35.553Z,101391.97
2023-06-07T04:33:05.709Z,101392.25
2023-06-07T04:35:34.806Z,101392.84
2023-06-07T04:38:03.834Z,101393.13
2023-06-07T04:40:31.590Z,101391.50
2023-06-07T04:43:06.337Z,101383.78
2023-06-07T04:45:37.672Z,101388.59
2023-06-07T04:48:06.274Z,101389.25
2023-06-07T04:50:34.405Z,101393.69
2023-06-07T04:53:03.762Z,101384.47
2023-06-07T04:55:35.285Z,101390.31
2023-06-07T04:58:04.575Z,101396.47
2023-06-07T05:00:32.063Z,101397.50
2023-06-07T05:03:07.378Z,101396.72
2023-06-07T05:05:35.015Z,101395.47
2023-06-07T05:08:02.961Z,101397.13
2023-06-07T05:10:30.520Z,101397.97
2023-06-07T05:12:57.982Z,101397.59
2023-06-07T05:15:25.900Z,101401.75
2023-06-07T05:17:54.880Z,101394.91
2023-06-07T05:20:25.916Z,101401.03
2023-06-07T05:22:53.386Z,101399.91
2023-06-07T05:25:21.255Z,101399.09
2023-06-07T05:28:00.251Z,101402.84
2023-06-07T05:30:38.654Z,101405.78
2023-06-07T05:33:06.689Z,101401.75
2023-06-07T05:35:35.584Z,101390.19
2023-06-07T05:38:03.121Z,101400.47
2023-06-07T05:40:30.695Z,101394.78
2023-06-07T05:42:58.458Z,101399.84
2023-06-07T05:45:26.384Z,101395.91
2023-06-07T05:47:53.891Z,101403.59
2023-06-07T05:50:22.080Z,101403.75
2023-06-07T05:52:57.405Z,101396.66
2023-06-07T05:55:26.624Z,101398.03
2023-06-07T05:57:54.255Z,101387.88
2023-06-07T06:00:22.239Z,101404.06
2023-06-07T06:02:49.851Z,101394.00
2023-06-07T06:05:17.827Z,101391.28
2023-06-07T06:07:45.414Z,101389.34
2023-06-07T06:10:14.329Z,101398.28
2023-06-07T06:12:41.788Z,101410.88
2023-06-07T06:15:09.799Z,101397.47
2023-06-07T06:17:37.405Z,101405.16
2023-06-07T06:20:05.723Z,101396.94
2023-06-07T06:22:33.431Z,101396.25
2023-06-07T06:25:00.969Z,101404.06
2023-06-07T06:27:29.856Z,101397.91
2023-06-07T06:29:57.534Z,101402.66
2023-06-07T06:32:25.028Z,101410.13
2023-06-07T06:34:55.117Z,101405.09
2023-06-07T06:37:22.614Z,101415.97
2023-06-07T06:39:52.237Z,101414.56
2023-06-07T06:42:19.772Z,101420.91
2023-06-07T06:44:48.618Z,101416.06
2023-06-07T06:47:16.206Z,101422.03
2023-06-07T06:49:43.774Z,101415.06
2023-06-07T06:52:11.656Z,101424.03
2023-06-07T06:54:39.117Z,101415.09
2023-06-07T06:57:09.192Z,101415.00
2023-06-07T06:59:38.533Z,101416.59
2023-06-07T07:02:07.771Z,101431.19
2023-06-07T07:04:36.055Z,101426.78
2023-06-07T07:07:03.865Z,101416.69
2023-06-07T07:09:32.414Z,101414.50
2023-06-07T07:11:59.904Z,101410.00
2023-06-07T07:14:27.426Z,101407.91
2023-06-07T07:16:55.130Z,101414.66
2023-06-07T07:19:24.002Z,101407.50
2023-06-07T07:21:52.246Z,101407.19
2023-06-07T07:24:20.088Z,101414.50
2023-06-07T07:26:47.640Z,101405.16
2023-06-07T07:29:15.095Z,101410.81
2023-06-07T07:31:42.617Z,101415.75
2023-06-07T07:34:12.197Z,101415.44
2023-06-07T07:36:41.760Z,101412.06
2023-06-07T07:39:09.520Z,101409.72
2023-06-07T07:41:37.711Z,101409.19
2023-06-07T07:44:05.455Z,101407.06
2023-06-07T07:46:32.948Z,101418.59
2023-06-07T07:49:00.895Z,101418.38
2023-06-07T07:51:28.338Z,101420.53
2023-06-07T07:53:57.908Z,101401.28
2023-06-07T07:56:26.059Z,101417.19
2023-06-07T07:58:53.496Z,101403.03
2023-06-07T08:01:21.611Z,101409.75
2023-06-07T08:03:49.521Z,101409.72
2023-06-07T08:06:18.240Z,101397.25
2023-06-07T08:08:47.698Z,101411.44
2023-06-07T08:11:16.613Z,101409.59
2023-06-07T08:13:44.134Z,101418.63
2023-06-07T08:16:12.088Z,101407.84
2023-06-07T08:18:40.230Z,101398.66
2023-06-07T08:21:07.699Z,101401.94
2023-06-07T08:23:35.221Z,101397.47
2023-06-07T08:26:03.455Z,101406.16
2023-06-07T08:28:32.245Z,101394.72
2023-06-07T08:30:59.780Z,101397.44
2023-06-07T08:33:27.321Z,101399.63
2023-06-07T08:35:54.839Z,101384.50
2023-06-07T08:38:22.347Z,101386.19
2023-06-07T08:40:49.899Z,101393.94
2023-06-07T08:43:17.491Z,101400.00
2023-06-07T08:45:46.360Z,101401.88
2023-06-07T08:48:15.065Z,101399.19
2023-06-07T08:50:45.299Z,101390.25
2023-06-07T08:53:15.948Z,101393.91
2023-06-07T08:55:44.544Z,101394.97
2023-06-07T08:58:13.143Z,101389.69
2023-06-07T09:00:40.773Z,101397.56
2023-06-07T09:03:09.664Z,101387.09
2023-06-07T09:05:37.387Z,101386.22
2023-06-07T09:08:05.684Z,101397.63
2023-06-07T09:10:33.208Z,101400.34
2023-06-07T09:13:00.681Z,101390.75
2023-06-07T09:15:30.771Z,101385.03
2023-06-07T09:18:01.074Z,101391.84
2023-06-07T09:20:32.522Z,101387.81
2023-06-07T09:23:05.528Z,101378.69
2023-06-07T09:25:34.164Z,101383.84
2023-06-07T09:28:04.659Z,101382.75
2023-06-07T09:30:32.172Z,101382.63
2023-06-07T09:32:59.682Z,101367.69
2023-06-07T09:35:27.425Z,101381.19
2023-06-07T09:37:56.856Z,101377.63
2023-06-07T09:40:25.459Z,101375.97
2023-06-07T09:43:00.910Z,101375.59
2023-06-07T09:45:29.288Z,101369.41
2023-06-07T09:48:04.951Z,101356.97
2023-06-07T09:50:32.994Z,101358.09
2023-06-07T09:53:03.086Z,101361.94
2023-06-07T09:55:31.703Z,101364.56
2023-06-07T09:57:59.403Z,101356.66
2023-06-07T10:00:28.527Z,101360.66
2023-06-07T10:03:07.178Z,101356.50
2023-06-07T10:05:35.362Z,101357.59
2023-06-07T10:08:05.773Z,101367.47
2023-06-07T10:10:35.801Z,101359.19
2023-06-07T10:13:06.100Z,101349.22
2023-06-07T10:15:36.014Z,101346.81
2023-06-07T10:18:13.557Z,101354.22
2023-06-07T10:20:42.996Z,101352.09
2023-06-07T10:23:15.926Z,101343.38
2023-06-07T10:25:47.994Z,101347.38
2023-06-07T10:28:21.580Z,101337.16
2023-06-07T10:30:55.084Z,101343.69
2023-06-07T10:33:26.306Z,101345.09
2023-06-07T10:35:56.101Z,101328.97
2023-06-07T10:38:25.536Z,101333.38
2023-06-07T10:40:54.034Z,101331.38
2023-06-07T10:43:22.645Z,101335.38
2023-06-07T10:45:50.208Z,101322.44
2023-06-07T10:48:35.619Z,101325.56
2023-06-07T10:51:03.469Z,101338.69
2023-06-07T10:53:57.331Z,101328.88
2023-06-07T10:56:30.445Z,101330.09
2023-06-07T10:58:59.156Z,101312.28
2023-06-07T11:01:27.745Z,101313.81
2023-06-07T11:03:55.582Z,101315.22
2023-06-07T11:06:23.253Z,101320.00
2023-06-07T11:08:51.971Z,101312.75
2023-06-07T11:11:52.016Z,101325.09
2023-06-07T11:14:19.646Z,101314.81
2023-06-07T11:16:47.233Z,101303.50
2023-06-07T11:19:18.224Z,101305.88
2023-06-07T11:22:07.781Z,101310.09
2023-06-07T11:24:38.073Z,101315.75
2023-06-07T11:27:15.142Z,101318.25
2023-06-07T11:29:44.286Z,101312.47
2023-06-07T11:32:12.977Z,101303.16
2023-06-07T11:34:40.596Z,101309.34
2023-06-07T11:37:09.649Z,101308.28
2023-06-07T11:39:37.189Z,101303.13
2023-06-07T11:42:06.073Z,101300.78
2023-06-07T11:44:36.391Z,101305.41
2023-06-07T11:47:06.995Z,101310.94
2023-06-07T11:49:38.917Z,101302.56
2023-06-07T11:52:07.940Z,101304.84
2023-06-07T11:54:36.465Z,101297.06
2023-06-07T11:57:04.160Z,101300.63
2023-06-07T11:59:32.252Z,101294.63
2023-06-07T12:02:01.711Z,101294.69
2023-06-07T12:04:29.384Z,101292.81
2023-06-07T12:06:57.014Z,101283.09
2023-06-07T12:09:24.519Z,101280.84
2023-06-07T12:11:54.653Z,101281.31
2023-06-07T12:14:32.494Z,101278.81
2023-06-07T12:17:02.666Z,101278.66
2023-06-07T12:19:30.599Z,101274.69
2023-06-07T12:22:09.502Z,101274.13
2023-06-07T12:24:41.085Z,101285.19
2023-06-07T12:27:13.013Z,101277.16
2023-06-07T12:29:41.402Z,101270.47
2023-06-07T12:32:11.148Z,101272.41
2023-06-07T12:34:44.396Z,101269.31
2023-06-07T12:37:12.239Z,101259.41
2023-06-07T12:39:39.784Z,101260.00
2023-06-07T12:42:08.529Z,101252.94
2023-06-07T12:44:36.184Z,101252.94
2023-06-07T12:47:03.943Z,101258.34
2023-06-07T12:49:32.865Z,101241.69
2023-06-07T12:52:00.690Z,101248.97
2023-06-07T12:54:28.288Z,101244.28
2023-06-07T12:56:56.536Z,101251.63
2023-06-07T12:59:23.992Z,101248.66
2023-06-07T13:01:51.914Z,101256.53
2023-06-07T13:04:19.424Z,101244.44
2023-06-07T13:06:48.252Z,101244.88
2023-06-07T13:09:15.812Z,101231.81
2023-06-07T13:11:44.279Z,101227.03
2023-06-07T13:14:11.826Z,101231.41
2023-06-07T13:16:39.665Z,101228.72
2023-06-07T13:19:07.289Z,101243.31
2023-06-07T13:21:34.752Z,101252.47
2023-06-07T13:24:03.665Z,101239.16
2023-06-07T13:26:31.421Z,101233.25
2023-06-07T13:28:58.926Z,101234.50
2023-06-07T13:31:27.189Z,101230.53
2023-06-07T13:33:54.681Z,101232.47
2023-06-07T13:36:22.139Z,101219.41
2023-06-07T13:38:49.831Z,101214.94
2023-06-07T13:41:18.659Z,101225.72
2023-06-07T13:44:03.456Z,101226.06
2023-06-07T13:46:36.247Z,101224.72
2023-06-07T13:49:03.786Z,101223.34
2023-06-07T13:51:31.428Z,101217.16
2023-06-07T13:53:59.312Z,101210.75
2023-06-07T13:56:28.371Z,101198.56
2023-06-07T13:58:59.043Z,101192.50
2023-06-07T14:01:28.176Z,101209.75
2023-06-07T14:03:56.693Z,101213.59
2023-06-07T14:06:24.588Z,101204.28
2023-06-07T14:08:52.073Z,101195.19
2023-06-07T14:11:19.644Z,101208.84
2023-06-07T14:13:48.497Z,101206.69
2023-06-07T14:16:16.140Z,101184.75
2023-06-07T14:18:43.604Z,101191.63
2023-06-07T14:21:11.099Z,101199.66
2023-06-07T14:23:38.635Z,101199.59
2023-06-07T14:26:06.114Z,101195.78
2023-06-07T14:28:33.613Z,101190.38
2023-06-07T14:31:02.482Z,101185.50
2023-06-07T14:33:30.056Z,101192.63
2023-06-07T14:35:57.496Z,101196.59
2023-06-07T14:38:24.982Z,101195.28
2023-06-07T14:40:53.048Z,101191.44
2023-06-07T14:43:20.562Z,101195.50
2023-06-07T14:45:48.054Z,101188.03
2023-06-07T14:48:16.859Z,101184.81
2023-06-07T14:50:44.547Z,101179.34
2023-06-07T14:53:12.114Z,101172.91
2023-06-07T14:55:39.600Z,101173.91
2023-06-07T14:58:07.160Z,101176.66
2023-06-07T15:00:35.890Z,101179.88
2023-06-07T15:03:03.644Z,101174.13
2023-06-07T15:05:34.781Z,101177.25
2023-06-07T15:08:04.623Z,101181.03
2023-06-07T15:10:32.091Z,101183.16
2023-06-07T15:13:00.033Z,101184.09
2023-06-07T15:15:28.164Z,101180.75
2023-06-07T15:17:57.772Z,101176.41
2023-06-07T15:20:25.952Z,101182.06
2023-06-07T15:22:54.849Z,101169.88
2023-06-07T15:25:22.470Z,101161.44
2023-06-07T15:27:49.971Z,101174.19
2023-06-07T15:30:17.626Z,101164.78
2023-06-07T15:32:45.199Z,101170.25
2023-06-07T15:35:13.296Z,101169.75
2023-06-07T15:37:41.091Z,101162.38
2023-06-07T15:40:10.758Z,101168.72
2023-06-07T15:42:39.306Z,101171.38
2023-06-07T15:45:08.090Z,101165.81
2023-06-07T15:47:35.640Z,101164.09
2023-06-07T15:50:03.400Z,101163.94
2023-06-07T15:52:31.175Z,101167.47
2023-06-07T15:54:58.658Z,101159.88
2023-06-07T15:57:27.611Z,101164.91
2023-06-07T16:00:04.652Z,101173.84
2023-06-07T16:02:32.426Z,101166.50
2023-06-07T16:05:33.612Z,101173.81
2023-06-07T16:11:29.896Z,101156.78
2023-06-07T16:13:58.694Z,101166.47
2023-06-07T16:16:29.291Z,101169.34
2023-06-07T16:19:10.535Z,101158.03
2023-06-07T16:21:39.418Z,101150.31
2023-06-07T16:24:13.136Z,101151.47
2023-06-07T16:26:40.995Z,101160.31
2023-06-07T16:29:09.907Z,101151.38
2023-06-07T16:31:41.043Z,101151.66
2023-06-07T16:34:08.549Z,101151.06
2023-06-07T16:36:38.498Z,101154.59
2023-06-07T16:39:06.954Z,101155.91
2023-06-07T16:41:37.037Z,101154.19
2023-06-07T16:44:05.939Z,101159.72
2023-06-07T16:46:34.829Z,101153.34
2023-06-07T16:49:02.363Z,101154.75
2023-06-07T16:51:29.809Z,101149.47
2023-06-07T16:53:57.281Z,101148.00
2023-06-07T16:56:24.751Z,101153.97
2023-06-07T16:58:52.211Z,101149.22
2023-06-07T17:01:19.717Z,101140.94
2023-06-07T17:03:48.654Z,101147.34
2023-06-07T17:06:17.262Z,101148.50
2023-06-07T17:08:46.363Z,101152.19
2023-06-07T17:11:16.186Z,101153.53
2023-06-07T17:13:44.982Z,101153.50
2023-06-07T17:16:13.725Z,101157.41
2023-06-07T17:18:41.301Z,101154.06
2023-06-07T17:21:10.901Z,101151.28
2023-06-07T17:23:38.369Z,101147.78
2023-06-07T17:26:07.692Z,101150.06
2023-06-07T17:28:43.408Z,101155.34
2023-06-07T17:31:10.937Z,101156.03
2023-06-07T17:33:41.647Z,101153.31
2023-06-07T17:36:11.114Z,101147.81
2023-06-07T17:38:38.777Z,101148.69
2023-06-07T17:41:06.400Z,101154.16
2023-06-07T17:43:33.876Z,101153.09
2023-06-07T17:46:01.408Z,101158.63
2023-06-07T17:48:29.031Z,101153.59
2023-06-07T17:50:56.496Z,101153.63
2023-06-07T17:53:25.364Z,101160.28
2023-06-07T17:55:52.850Z,101161.88
2023-06-07T17:58:20.552Z,101166.41
2023-06-07T18:00:48.082Z,101164.94
2023-06-07T18:03:20.381Z,101156.19
2023-06-07T18:05:48.064Z,101155.41
2023-06-07T18:08:15.852Z,101158.84
2023-06-07T18:10:45.186Z,101159.94
2023-06-07T18:13:12.627Z,101157.56
2023-06-07T18:15:40.133Z,101157.59
2023-06-07T18:18:07.799Z,101150.72
2023-06-07T18:20:36.051Z,101158.78
2023-06-07T18:23:06.063Z,101158.56
2023-06-07T18:25:33.650Z,101162.34
2023-06-07T18:28:02.464Z,101170.00
2023-06-07T18:30:30.240Z,101162.16
2023-06-07T18:32:58.324Z,101159.31
2023-06-07T18:35:26.041Z,101163.16
2023-06-07T18:37:53.560Z,101166.72
2023-06-07T18:40:23.793Z,101164.09
2023-06-07T18:42:51.286Z,101174.38
2023-06-07T18:45:25.501Z,101174.22
2023-06-07T18:47:53.636Z,101175.94
2023-06-07T18:50:21.729Z,101181.88
2023-06-07T18:52:49.269Z,101186.06
2023-06-07T18:55:16.740Z,101186.47
2023-06-07T18:57:44.235Z,101192.72
2023-06-07T19:00:12.793Z,101195.88
2023-06-07T19:02:42.307Z,101199.72
2023-06-07T19:05:10.475Z,101196.94
2023-06-07T19:07:38.238Z,101204.81
2023-06-07T19:10:06.369Z,101225.59
2023-06-07T19:12:33.980Z,101205.88
2023-06-07T19:15:01.635Z,101211.38
2023-06-07T19:17:29.244Z,101220.28
2023-06-07T19:20:00.523Z,101224.34
2023-06-07T19:22:28.333Z,101219.13
2023-06-07T19:24:55.886Z,101228.28
2023-06-07T19:27:28.253Z,101226.84
2023-06-07T19:29:55.961Z,101244.25
2023-06-07T19:32:23.621Z,101247.16
2023-06-07T19:34:54.094Z,101251.22
2023-06-07T19:37:23.377Z,101251.31
2023-06-07T19:39:51.082Z,101260.13
2023-06-07T19:42:21.013Z,101271.66
2023-06-07T19:44:50.548Z,101270.78
2023-06-07T19:47:32.300Z,101276.31
2023-06-07T19:49:59.892Z,101282.66
2023-06-07T19:52:28.925Z,101277.66
2023-06-07T19:54:56.686Z,101285.00
2023-06-07T19:57:24.540Z,101286.41
2023-06-07T19:59:52.124Z,101279.63
2023-06-07T20:02:19.693Z,101288.97
2023-06-07T20:04:47.796Z,101283.28
2023-06-07T20:07:15.400Z,101306.53
2023-06-07T20:09:44.357Z,101300.53
2023-06-07T20:12:12.958Z,101300.09
2023-06-07T20:14:41.099Z,101302.22
2023-06-07T20:17:10.417Z,101291.41
2023-06-07T20:19:38.408Z,101308.47
2023-06-07T20:22:06.707Z,101294.00
2023-06-07T20:24:34.315Z,101294.75
2023-06-07T20:27:05.237Z,101297.78
2023-06-07T20:29:32.743Z,101295.25
2023-06-07T20:32:02.872Z,101288.31
2023-06-07T20:34:30.674Z,101300.25
2023-06-07T20:36:58.203Z,101297.63
2023-06-07T20:39:25.803Z,101297.69
2023-06-07T20:41:53.475Z,101292.47
2023-06-07T20:44:22.343Z,101292.34
2023-06-07T20:46:50.061Z,101298.59
2023-06-07T20:49:17.576Z,101296.00
2023-06-07T20:51:45.132Z,101301.88
2023-06-07T20:54:12.735Z,101298.06
2023-06-07T20:56:40.308Z,101306.66
2023-06-07T20:59:08.481Z,101305.97
2023-06-07T21:01:37.973Z,101306.00
2023-06-07T21:04:06.416Z,101305.97
2023-06-07T21:06:34.239Z,101302.88
2023-06-07T21:09:01.901Z,101300.56
2023-06-07T21:11:29.415Z,101303.75
2023-06-07T21:13:56.962Z,101300.88
2023-06-07T21:16:24.624Z,101299.97
2023-06-07T21:18:53.420Z,101305.03
2023-06-07T21:21:20.981Z,101307.91
2023-06-07T21:23:48.629Z,101303.72
2023-06-07T21:26:16.243Z,101304.63
2023-06-07T21:28:43.946Z,101294.50
2023-06-07T21:31:11.489Z,101302.19
2023-06-07T21:33:39.231Z,101299.31
2023-06-07T21:36:08.439Z,101307.78
2023-06-07T21:38:35.970Z,101306.81
2023-06-07T21:41:03.492Z,101301.63
2023-06-07T21:43:31.037Z,101314.59
2023-06-07T21:45:58.722Z,101301.56
2023-06-07T21:48:26.258Z,101306.59
2023-06-07T21:50:53.817Z,101304.91
2023-06-07T21:53:22.793Z,101307.03
2023-06-07T21:55:50.830Z,101307.63
2023-06-07T21:58:18.324Z,101314.94
2023-06-07T22:00:46.988Z,101306.53
2023-06-07T22:03:14.574Z,101306.69
2023-06-07T22:05:42.066Z,101300.91
2023-06-07T22:08:10.090Z,101292.09
2023-06-07T22:10:40.152Z,101308.28
2023-06-07T22:13:07.683Z,101305.75
2023-06-07T22:15:35.240Z,101307.28
2023-06-07T22:18:04.649Z,101299.97
2023-06-07T22:20:33.779Z,101311.13
2023-06-07T22:23:02.435Z,101304.19
2023-06-07T22:25:39.991Z,101300.00
2023-06-07T22:28:13.576Z,101299.78
2023-06-07T22:30:42.359Z,101296.09
2023-06-07T22:33:10.679Z,101307.59
2023-06-07T22:35:40.610Z,101303.00
2023-06-07T22:38:13.304Z,101312.66
2023-06-07T22:40:41.841Z,101304.44
2023-06-07T22:43:10.854Z,101305.63
2023-06-07T22:45:38.635Z,101312.31
2023-06-07T22:48:10.494Z,101302.34
2023-06-07T22:50:39.555Z,101308.03
2023-06-07T22:53:08.345Z,101306.50
2023-06-07T22:55:36.936Z,101304.25
2023-06-07T22:58:06.129Z,101306.28
2023-06-07T23:00:36.485Z,101301.50
2023-06-07T23:03:04.929Z,101297.88
2023-06-07T23:05:33.640Z,101293.81
2023-06-07T23:08:01.200Z,101291.22
2023-06-07T23:10:36.269Z,101294.06
2023-06-07T23:13:09.279Z,101295.47
2023-06-07T23:15:43.364Z,101292.19
2023-06-07T23:18:12.327Z,101289.94
2023-06-07T23:20:42.041Z,101290.97
2023-06-07T23:23:11.120Z,101286.09
2023-06-07T23:25:39.042Z,101290.19
2023-06-07T23:28:07.099Z,101288.16
2023-06-07T23:30:35.394Z,101291.56
2023-06-07T23:33:04.662Z,101291.78
2023-06-07T23:35:32.254Z,101282.53
2023-06-07T23:38:00.808Z,101284.47
2023-06-07T23:40:28.582Z,101287.03
2023-06-07T23:42:57.495Z,101295.25
2023-06-07T23:45:25.432Z,101290.81
2023-06-07T23:47:53.040Z,101287.59
2023-06-07T23:50:21.946Z,101289.75
2023-06-07T23:52:49.424Z,101286.97
2023-06-07T23:55:16.922Z,101290.38
2023-06-07T23:57:44.410Z,101284.59
